Time;durP1;ratioP1;P1;durP2;ratioP2;P2;SDS_P1;SDS_P2;PMS_P1;PMS_P2;Temp;Humidity;BMP_temperature;BMP_pressure;BME280_temperature;BME280_humidity;BME280_pressure;Samples;Min_cycle;Max_cycle;Signal;HPM_P1;HPM_P2
2022/01/27 00:07:37;;;;;;;148.10;47.92;;;4.80;99.90;;;;;;5013002;28;20471;-56
2022/01/27 00:12:32;;;;;;;144.45;49.33;;;4.80;99.90;;;;;;5012767;28;20033;-53
2022/01/27 00:15:09;;;;;;;136.68;45.35;;;4.90;99.90;;;;;;5009914;28;20064;-56
2022/01/27 00:17:40;;;;;;;153.75;48.75;;;4.80;99.90;;;;;;5031047;28;20037;-54
2022/01/27 00:20:06;;;;;;;150.27;49.72;;;4.80;99.90;;;;;;5018981;28;20033;-57
2022/01/27 00:22:32;;;;;;;148.18;50.70;;;4.80;99.90;;;;;;5012080;28;20045;-52
2022/01/27 00:24:58;;;;;;;154.07;51.13;;;4.80;99.90;;;;;;5012494;28;20026;-55
2022/01/27 00:27:23;;;;;;;149.55;48.33;;;4.80;99.90;;;;;;5012636;28;20068;-56
2022/01/27 00:29:49;;;;;;;146.15;47.85;;;4.90;99.90;;;;;;4994178;28;20038;-57
2022/01/27 00:32:15;;;;;;;146.80;50.78;;;4.90;99.90;;;;;;5011985;28;20034;-56
2022/01/27 00:34:40;;;;;;;162.38;53.38;;;4.80;99.90;;;;;;4993336;28;20065;-59
2022/01/27 00:37:06;;;;;;;136.40;48.83;;;4.90;99.90;;;;;;5019905;28;20030;-58
2022/01/27 00:39:31;;;;;;;122.55;42.90;;;4.90;99.90;;;;;;5031847;28;20120;-55
2022/01/27 00:41:57;;;;;;;135.80;48.00;;;4.90;99.90;;;;;;5024957;28;20030;-58
2022/01/27 00:44:23;;;;;;;148.05;47.55;;;4.90;99.90;;;;;;5006006;28;20120;-57
2022/01/27 00:46:49;;;;;;;144.45;51.40;;;4.90;99.90;;;;;;5031676;28;20147;-55
2022/01/27 00:49:14;;;;;;;145.13;49.25;;;4.90;99.90;;;;;;5031807;28;20022;-54
2022/01/27 00:51:44;;;;;;;149.00;52.67;;;4.90;99.90;;;;;;5013850;28;20033;-56
2022/01/27 00:54:18;;;;;;;133.85;48.95;;;4.90;99.90;;;;;;5031691;28;20033;-56
2022/01/27 01:02:09;;;;;;;138.93;48.75;;;4.90;99.90;;;;;;5031060;28;20079;-55
2022/01/27 01:04:39;;;;;;;139.35;52.00;;;4.90;99.90;;;;;;5031201;28;20029;-58
2022/01/27 01:07:06;;;;;;;134.48;48.95;;;4.90;99.90;;;;;;5026325;28;20175;-56
2022/01/27 01:15:19;;;;;;;154.35;55.45;;;4.90;99.90;;;;;;5019024;28;20057;-57
2022/01/27 01:17:59;;;;;;;135.57;51.30;;;4.90;99.90;;;;;;5004257;28;20021;-57
2022/01/27 01:20:39;;;;;;;136.48;51.20;;;4.90;99.90;;;;;;5022712;28;20102;-56
2022/01/27 01:33:58;;;;;;;140.88;52.10;;;4.80;99.90;;;;;;5022162;28;20040;-58
2022/01/27 01:36:36;;;;;;;143.23;55.03;;;4.80;99.90;;;;;;5031031;28;20038;-56
2022/01/27 01:39:06;;;;;;;138.20;52.58;;;4.80;99.90;;;;;;5030259;28;20103;-55
2022/01/27 01:41:32;;;;;;;132.00;49.47;;;4.80;99.90;;;;;;5030856;28;20068;-54
2022/01/27 01:43:59;;;;;;;135.00;53.17;;;4.80;99.90;;;;;;5030520;28;20097;-57
2022/01/27 01:46:24;;;;;;;145.90;51.85;;;4.80;99.90;;;;;;5025126;28;20037;-57
2022/01/27 01:48:50;;;;;;;131.32;51.65;;;4.90;99.90;;;;;;5004999;28;20030;-57
2022/01/27 01:51:24;;;;;;;126.30;47.15;;;4.90;99.90;;;;;;5031048;28;20029;-54
2022/01/27 01:53:50;;;;;;;131.00;52.17;;;4.90;99.90;;;;;;5030346;28;20444;-55
2022/01/27 01:56:16;;;;;;;137.35;52.67;;;4.90;99.90;;;;;;5027535;28;20030;-55
2022/01/27 01:58:41;;;;;;;129.15;52.15;;;4.90;99.90;;;;;;5022516;28;20025;-60
2022/01/27 02:01:07;;;;;;;127.53;52.47;;;4.90;99.90;;;;;;5030952;28;20030;-54
2022/01/27 02:03:32;;;;;;;120.30;49.97;;;4.90;99.90;;;;;;5030332;28;20034;-54
2022/01/27 02:05:59;;;;;;;104.80;43.65;;;5.00;99.90;;;;;;5013020;28;20098;-56
2022/01/27 02:08:35;;;;;;;118.20;45.97;;;5.00;99.90;;;;;;5030704;28;20034;-52
2022/01/27 02:19:13;;;;;;;103.72;42.53;;;5.00;99.90;;;;;;5030799;28;20036;-53
2022/01/27 02:21:57;;;;;;;103.88;42.22;;;5.10;99.90;;;;;;5027061;28;20017;-54
2022/01/27 02:24:24;;;;;;;98.28;41.65;;;5.10;99.90;;;;;;5021818;28;20034;-53
2022/01/27 02:26:51;;;;;;;86.20;39.78;;;5.10;99.90;;;;;;5029441;28;20439;-54
2022/01/27 02:29:18;;;;;;;90.03;40.85;;;5.10;99.90;;;;;;5029886;28;20032;-54
2022/01/27 02:31:45;;;;;;;91.60;38.20;;;5.20;99.90;;;;;;5029722;28;20159;-53
2022/01/27 02:34:11;;;;;;;84.00;36.28;;;5.10;99.90;;;;;;5030160;28;20052;-56
2022/01/27 02:36:37;;;;;;;99.30;39.85;;;5.20;99.90;;;;;;5025197;28;20018;-53
2022/01/27 02:39:06;;;;;;;93.07;38.55;;;5.10;99.90;;;;;;5023725;28;20451;-55
2022/01/27 02:41:40;;;;;;;93.72;41.50;;;5.20;99.90;;;;;;5029324;28;20172;-52
2022/01/27 02:44:06;;;;;;;88.43;40.13;;;5.10;99.90;;;;;;5012753;28;20026;-53
2022/01/27 02:46:39;;;;;;;93.55;39.53;;;5.20;99.90;;;;;;5011385;28;20541;-52
2022/01/27 02:49:05;;;;;;;99.20;37.28;;;5.20;99.90;;;;;;5017377;28;20521;-53
2022/01/27 02:51:33;;;;;;;90.10;38.72;;;5.20;99.90;;;;;;5021783;28;20420;-54
2022/01/27 02:53:59;;;;;;;86.38;33.83;;;5.20;99.90;;;;;;5029395;28;20037;-56
2022/01/27 02:56:25;;;;;;;86.43;35.28;;;5.20;99.90;;;;;;5029439;28;20022;-53
2022/01/27 02:58:50;;;;;;;85.13;35.60;;;5.30;99.90;;;;;;5029423;28;20030;-57
2022/01/27 03:01:20;;;;;;;85.90;37.65;;;5.20;99.90;;;;;;5029799;28;20032;-57
2022/01/27 03:03:46;;;;;;;91.47;35.15;;;5.20;99.90;;;;;;5020658;28;20072;-54
2022/01/27 03:06:11;;;;;;;83.80;36.90;;;5.30;99.90;;;;;;5021284;28;20060;-57
2022/01/27 03:08:37;;;;;;;83.82;37.67;;;5.30;99.90;;;;;;5029474;28;20033;-55
2022/01/27 03:11:06;;;;;;;93.60;37.50;;;5.30;99.90;;;;;;5023047;28;20057;-54
2022/01/27 03:13:32;;;;;;;88.28;36.10;;;5.20;99.90;;;;;;5020682;28;20112;-52
2022/01/27 03:15:58;;;;;;;89.22;37.70;;;5.20;99.90;;;;;;5009018;28;20523;-56
2022/01/27 03:18:24;;;;;;;96.88;38.05;;;5.30;99.90;;;;;;5021387;28;20063;-55
2022/01/27 03:20:49;;;;;;;88.18;38.63;;;5.30;99.90;;;;;;5028890;28;20025;-52
2022/01/27 03:23:15;;;;;;;83.80;35.88;;;5.30;99.90;;;;;;5028852;28;20029;-57
2022/01/27 03:25:41;;;;;;;87.28;37.47;;;5.30;99.90;;;;;;5029165;28;20026;-53
2022/01/27 03:28:09;;;;;;;85.13;37.92;;;5.30;99.90;;;;;;5032150;28;20037;-57
2022/01/27 03:30:35;;;;;;;84.05;35.42;;;5.30;99.90;;;;;;5029126;28;20061;-57
2022/01/27 03:33:00;;;;;;;91.35;39.42;;;5.30;99.90;;;;;;5021620;28;20126;-56
2022/01/27 03:35:26;;;;;;;89.18;38.92;;;5.30;99.90;;;;;;5023931;28;20042;-54
2022/01/27 03:37:52;;;;;;;82.85;34.08;;;5.30;99.90;;;;;;5032802;28;20025;-55
2022/01/27 03:40:17;;;;;;;75.93;31.83;;;5.30;99.90;;;;;;5015183;28;20136;-55
2022/01/27 03:42:50;;;;;;;85.38;37.47;;;5.30;99.90;;;;;;5028129;28;20056;-55
2022/01/27 03:45:16;;;;;;;87.82;36.83;;;5.30;99.90;;;;;;5024973;28;20043;-54
2022/01/27 03:47:42;;;;;;;86.05;36.20;;;5.30;99.90;;;;;;5033006;28;20076;-57
2022/01/27 03:50:08;;;;;;;83.43;36.35;;;5.30;99.90;;;;;;5015237;28;20044;-56
2022/01/27 03:52:33;;;;;;;86.53;39.95;;;5.30;99.90;;;;;;5032256;28;20474;-52
2022/01/27 03:54:59;;;;;;;91.28;38.65;;;5.20;99.90;;;;;;5032583;28;20029;-56
2022/01/27 03:57:24;;;;;;;95.82;38.70;;;5.20;99.90;;;;;;5023541;28;20160;-54
2022/01/27 03:59:50;;;;;;;96.38;36.13;;;5.20;99.90;;;;;;5026353;28;20022;-57
2022/01/27 04:02:16;;;;;;;96.10;39.13;;;5.20;99.90;;;;;;5032354;28;20036;-57
2022/01/27 04:04:42;;;;;;;96.20;39.95;;;5.10;99.90;;;;;;5032701;28;20040;-57
2022/01/27 04:07:08;;;;;;;88.88;34.88;;;5.10;99.90;;;;;;5032480;28;20399;-57
2022/01/27 04:09:33;;;;;;;108.88;42.78;;;5.00;99.90;;;;;;5032942;28;20030;-58
2022/01/27 04:11:59;;;;;;;108.47;41.65;;;5.00;99.90;;;;;;5022472;28;20044;-57
2022/01/27 04:14:25;;;;;;;95.03;41.17;;;5.00;99.90;;;;;;5014096;28;20476;-57
2022/01/27 04:16:50;;;;;;;107.22;39.15;;;4.90;99.90;;;;;;5012269;28;20396;-57
2022/01/27 04:19:16;;;;;;;107.60;43.65;;;4.90;99.90;;;;;;4995293;28;20032;-50
2022/01/27 04:21:42;;;;;;;110.95;42.22;;;4.90;99.90;;;;;;5015373;28;20514;-57
2022/01/27 04:24:09;;;;;;;98.55;39.92;;;4.90;99.90;;;;;;5024022;28;20037;-50
2022/01/27 04:26:45;;;;;;;94.18;40.05;;;4.90;99.90;;;;;;5032706;28;20148;-50
2022/01/27 04:29:12;;;;;;;94.90;39.60;;;4.90;99.90;;;;;;5032973;28;20109;-50
2022/01/27 04:31:41;;;;;;;114.03;44.80;;;4.80;99.90;;;;;;5032030;28;20057;-50
2022/01/27 04:34:06;;;;;;;112.38;42.47;;;4.80;99.90;;;;;;5031607;28;20030;-55
2022/01/27 04:36:34;;;;;;;98.88;39.40;;;4.80;99.90;;;;;;5028446;28;20032;-57
2022/01/27 04:41:44;;;;;;;109.55;43.53;;;4.80;99.90;;;;;;5031989;28;20025;-58
2022/01/27 04:49:08;;;;;;;96.13;42.53;;;4.70;99.90;;;;;;5031754;28;20028;-52
2022/01/27 04:51:34;;;;;;;102.88;42.15;;;4.70;99.90;;;;;;5025943;28;20075;-50
2022/01/27 04:54:41;;;;;;;95.50;39.40;;;4.70;99.90;;;;;;5022795;28;20025;-51
2022/01/27 04:56:52;;;;;;;91.03;37.42;;;4.70;99.90;;;;;;5028937;28;20076;-52
2022/01/27 04:59:23;;;;;;;92.30;39.50;;;4.70;99.90;;;;;;5032016;28;20399;-53
2022/01/27 05:02:03;;;;;;;102.28;42.50;;;4.70;99.90;;;;;;5031113;28;20376;-49
2022/01/27 05:04:33;;;;;;;105.55;44.53;;;4.70;99.90;;;;;;5023472;28;20550;-51
2022/01/27 05:06:59;;;;;;;95.28;40.78;;;4.70;99.90;;;;;;5026366;28;20041;-53
2022/01/27 05:09:25;;;;;;;101.93;40.85;;;4.70;99.90;;;;;;5031614;28;20092;-53
2022/01/27 05:11:55;;;;;;;106.22;41.20;;;4.70;99.90;;;;;;5021389;28;20033;-57
2022/01/27 05:14:24;;;;;;;101.53;38.97;;;4.60;99.90;;;;;;5023392;28;20055;-56
2022/01/27 05:16:50;;;;;;;112.38;45.47;;;4.60;99.90;;;;;;5031088;28;20079;-57
2022/01/27 05:19:17;;;;;;;102.40;40.05;;;4.60;99.90;;;;;;5031445;28;20033;-56
2022/01/27 05:21:42;;;;;;;111.90;45.50;;;4.60;99.90;;;;;;5030493;28;20034;-57
2022/01/27 05:24:09;;;;;;;102.72;40.83;;;4.60;99.90;;;;;;5031065;28;20105;-56
2022/01/27 05:26:35;;;;;;;95.47;38.92;;;4.60;99.90;;;;;;5025677;28;20033;-54
2022/01/27 05:29:03;;;;;;;102.55;42.50;;;4.60;99.90;;;;;;5022798;28;20025;-57
2022/01/27 05:31:29;;;;;;;112.63;46.08;;;4.60;99.90;;;;;;5008004;28;20034;-58
2022/01/27 05:33:54;;;;;;;102.13;44.03;;;4.60;99.90;;;;;;5022119;28;20108;-55
2022/01/27 05:36:20;;;;;;;96.55;41.55;;;4.60;99.90;;;;;;5030870;28;20081;-55
2022/01/27 05:38:46;;;;;;;93.93;39.03;;;4.60;99.90;;;;;;5012846;28;20056;-53
2022/01/27 05:41:14;;;;;;;95.57;39.97;;;4.60;99.90;;;;;;5013346;28;20053;-60
2022/01/27 05:43:40;;;;;;;106.85;41.70;;;4.60;99.90;;;;;;5030617;28;20558;-58
2022/01/27 05:46:06;;;;;;;98.55;41.78;;;4.60;99.90;;;;;;5024122;28;20073;-59
2022/01/27 05:48:31;;;;;;;97.90;40.40;;;4.60;99.90;;;;;;5022498;28;20066;-59
2022/01/27 05:50:57;;;;;;;96.50;41.10;;;4.60;99.90;;;;;;5029974;28;20461;-56
2022/01/27 05:53:24;;;;;;;91.13;41.33;;;4.60;99.90;;;;;;5030138;28;20040;-57
2022/01/27 05:55:49;;;;;;;93.88;39.53;;;4.60;99.90;;;;;;5030478;28;20449;-60
2022/01/27 05:58:15;;;;;;;79.85;33.50;;;4.60;99.90;;;;;;5030935;28;20038;-59
2022/01/27 06:00:41;;;;;;;92.55;38.33;;;4.60;99.90;;;;;;5025237;28;20034;-61
2022/01/27 06:03:06;;;;;;;85.43;34.92;;;4.60;99.90;;;;;;5018441;28;20229;-61
2022/01/27 06:05:33;;;;;;;86.45;36.53;;;4.60;99.90;;;;;;5030483;28;20037;-60
2022/01/27 06:07:59;;;;;;;88.50;36.50;;;4.60;99.90;;;;;;5030380;28;20025;-54
2022/01/27 06:10:25;;;;;;;77.75;32.70;;;4.60;99.90;;;;;;5030740;28;20030;-52
2022/01/27 06:12:53;;;;;;;79.50;33.20;;;4.60;99.90;;;;;;5029901;28;20349;-51
2022/01/27 06:15:20;;;;;;;80.70;33.40;;;4.60;99.90;;;;;;5027825;28;20034;-49
2022/01/27 06:17:48;;;;;;;71.18;34.05;;;4.60;99.90;;;;;;5018073;28;20498;-52
2022/01/27 06:20:16;;;;;;;71.60;32.05;;;4.70;99.90;;;;;;5028087;28;20030;-61
2022/01/27 06:22:42;;;;;;;70.50;31.23;;;4.60;99.90;;;;;;5029569;28;20024;-61
2022/01/27 06:25:09;;;;;;;74.95;32.28;;;4.70;99.90;;;;;;5030552;28;20451;-59
2022/01/27 06:27:36;;;;;;;67.63;31.83;;;4.70;99.90;;;;;;5030547;28;20021;-56
2022/01/27 06:30:05;;;;;;;77.70;33.55;;;4.70;99.90;;;;;;5018575;28;20068;-49
2022/01/27 06:32:31;;;;;;;64.05;28.15;;;4.70;99.90;;;;;;5019833;28;20037;-55
2022/01/27 06:34:57;;;;;;;75.18;33.08;;;4.70;99.90;;;;;;5009872;28;20029;-50
2022/01/27 06:37:23;;;;;;;70.97;32.10;;;4.70;99.90;;;;;;4993035;28;20026;-56
2022/01/27 06:39:48;;;;;;;64.82;30.88;;;4.70;99.90;;;;;;5006855;28;20025;-55
2022/01/27 06:42:14;;;;;;;66.72;30.50;;;4.70;99.90;;;;;;5017364;28;20026;-56
2022/01/27 06:44:40;;;;;;;75.30;33.33;;;4.70;99.90;;;;;;5012655;28;20036;-55
2022/01/27 06:47:06;;;;;;;77.60;34.10;;;4.70;99.90;;;;;;5022955;28;20025;-56
2022/01/27 06:49:32;;;;;;;77.10;33.10;;;4.70;99.90;;;;;;5011222;28;20092;-53
2022/01/27 06:51:57;;;;;;;72.60;34.05;;;4.80;99.90;;;;;;5009690;28;20344;-55
2022/01/27 06:54:23;;;;;;;77.90;34.15;;;4.80;99.90;;;;;;5017553;28;20033;-51
2022/01/27 06:56:48;;;;;;;70.90;32.95;;;4.80;99.90;;;;;;5015856;28;20029;-53
2022/01/27 06:59:14;;;;;;;72.65;34.20;;;4.80;99.90;;;;;;5022244;28;20026;-50
2022/01/27 07:01:40;;;;;;;71.97;29.67;;;4.80;99.90;;;;;;5024520;28;20343;-58
2022/01/27 07:04:06;;;;;;;72.13;31.70;;;4.80;99.90;;;;;;5021684;28;20029;-59
2022/01/27 07:06:33;;;;;;;76.93;32.08;;;4.80;99.90;;;;;;5022551;28;20037;-54
2022/01/27 07:08:59;;;;;;;71.50;33.13;;;4.80;99.90;;;;;;5021589;28;20030;-54
2022/01/27 07:11:25;;;;;;;71.40;30.83;;;4.80;99.90;;;;;;5018291;28;20055;-54
2022/01/27 07:13:50;;;;;;;73.53;31.63;;;4.80;99.90;;;;;;5023446;28;20047;-51
2022/01/27 07:16:16;;;;;;;71.85;30.88;;;4.80;99.90;;;;;;5018492;28;20038;-56
2022/01/27 07:18:42;;;;;;;70.15;29.85;;;4.80;99.90;;;;;;5028789;28;20032;-53
2022/01/27 07:21:08;;;;;;;72.13;30.38;;;4.80;99.90;;;;;;4996896;28;20030;-49
2022/01/27 07:23:33;;;;;;;63.38;30.55;;;4.80;99.90;;;;;;5009468;28;20034;-51
2022/01/27 07:25:59;;;;;;;68.03;28.65;;;4.80;99.90;;;;;;5016411;28;20034;-57
2022/01/27 07:28:25;;;;;;;63.78;28.50;;;4.80;99.90;;;;;;5019407;28;20030;-56
2022/01/27 07:30:51;;;;;;;57.35;25.33;;;4.80;99.90;;;;;;5012051;28;20480;-54
2022/01/27 07:33:16;;;;;;;60.47;27.63;;;4.90;99.90;;;;;;4990532;28;20120;-58
2022/01/27 07:35:42;;;;;;;62.47;27.25;;;4.90;99.90;;;;;;5009549;28;20451;-55
2022/01/27 07:38:07;;;;;;;66.45;27.73;;;4.90;99.90;;;;;;5026433;28;20056;-51
2022/01/27 07:40:34;;;;;;;59.25;25.02;;;4.90;99.90;;;;;;4997832;28;20624;-58
2022/01/27 07:43:00;;;;;;;61.92;24.45;;;4.90;99.90;;;;;;5004630;28;20093;-57
2022/01/27 07:45:25;;;;;;;57.05;25.20;;;4.80;99.90;;;;;;5009857;28;20476;-60
2022/01/27 07:47:51;;;;;;;64.75;27.63;;;4.90;99.90;;;;;;5022121;28;20034;-58
2022/01/27 07:50:17;;;;;;;56.78;26.13;;;5.00;99.90;;;;;;5005111;28;20037;-57
2022/01/27 07:52:42;;;;;;;57.85;27.33;;;5.00;99.90;;;;;;5005316;28;20093;-58
2022/01/27 07:55:09;;;;;;;64.63;27.75;;;5.00;99.90;;;;;;5006736;28;20117;-58
2022/01/27 07:57:35;;;;;;;56.17;25.30;;;4.90;99.90;;;;;;4989239;28;20030;-58
2022/01/27 08:00:01;;;;;;;53.17;24.92;;;5.00;99.90;;;;;;4998353;28;20044;-59
2022/01/27 08:02:27;;;;;;;53.70;23.88;;;5.00;99.90;;;;;;4998502;28;20034;-56
2022/01/27 08:04:52;;;;;;;59.95;26.50;;;5.00;99.90;;;;;;5015075;28;20184;-52
2022/01/27 08:07:18;;;;;;;54.53;26.58;;;4.90;99.90;;;;;;5013568;28;20223;-57
2022/01/27 08:09:44;;;;;;;61.67;25.60;;;5.00;99.90;;;;;;5007159;28;20049;-58
2022/01/27 08:12:10;;;;;;;59.47;25.80;;;5.00;99.90;;;;;;4989530;28;20030;-58
2022/01/27 08:14:36;;;;;;;54.92;23.13;;;5.00;99.90;;;;;;5012213;28;20045;-57
2022/01/27 08:17:01;;;;;;;53.00;24.48;;;5.00;99.90;;;;;;5013860;28;20042;-60
2022/01/27 08:19:27;;;;;;;55.08;24.63;;;5.00;99.90;;;;;;5024146;28;20026;-52
2022/01/27 08:21:53;;;;;;;53.53;23.17;;;5.00;99.90;;;;;;5032861;28;20030;-56
2022/01/27 08:24:18;;;;;;;48.03;20.70;;;5.00;99.90;;;;;;5032768;28;20022;-56
2022/01/27 08:26:46;;;;;;;46.17;21.90;;;5.00;99.90;;;;;;5032114;28;20117;-54
2022/01/27 08:29:18;;;;;;;50.17;22.40;;;5.00;99.90;;;;;;5021819;28;20038;-57
2022/01/27 08:32:02;;;;;;;;;;;5.10;99.90;;;;;;5025014;28;20112;-54
2022/01/27 08:34:34;;;;;;;44.10;21.65;;;5.10;99.90;;;;;;5032106;28;19996;-57
2022/01/27 08:37:02;;;;;;;36.03;18.88;;;5.10;99.90;;;;;;5032306;28;20025;-55
2022/01/27 08:39:28;;;;;;;44.58;19.60;;;5.10;99.90;;;;;;5032375;28;20107;-56
2022/01/27 08:41:54;;;;;;;43.03;21.42;;;5.20;99.90;;;;;;5031345;28;20419;-58
2022/01/27 08:44:20;;;;;;;52.58;22.65;;;5.20;99.90;;;;;;5006467;28;20048;-55
2022/01/27 08:46:45;;;;;;;46.78;22.67;;;5.20;99.90;;;;;;5020766;28;20096;-58
2022/01/27 08:49:11;;;;;;;44.10;20.50;;;5.20;99.90;;;;;;5020870;28;20033;-58
2022/01/27 08:51:40;;;;;;;51.83;22.15;;;5.20;99.90;;;;;;5032745;28;20018;-57
2022/01/27 08:54:05;;;;;;;43.33;20.23;;;5.20;99.90;;;;;;5031811;28;20030;-56
2022/01/27 08:56:31;;;;;;;47.25;20.98;;;5.20;99.90;;;;;;5022263;28;20076;-56
2022/01/27 08:58:57;;;;;;;49.17;20.77;;;5.20;99.90;;;;;;5023660;28;20044;-52
2022/01/27 09:01:26;;;;;;;41.90;18.48;;;5.20;99.90;;;;;;5017948;28;20042;-56
2022/01/27 09:03:52;;;;;;;42.42;19.90;;;5.30;99.90;;;;;;5031133;28;20051;-53
2022/01/27 09:06:21;;;;;;;42.28;20.50;;;5.30;99.90;;;;;;5032203;28;20375;-54
2022/01/27 09:08:48;;;;;;;45.55;20.10;;;5.30;99.90;;;;;;5015207;28;20121;-53
2022/01/27 09:11:15;;;;;;;37.53;18.92;;;5.30;99.90;;;;;;5011946;28;20061;-53
2022/01/27 09:13:42;;;;;;;43.35;18.08;;;5.30;99.90;;;;;;5006029;28;20026;-54
2022/01/27 09:16:09;;;;;;;38.88;19.42;;;5.40;99.90;;;;;;5032351;28;20064;-56
2022/01/27 09:18:35;;;;;;;41.35;19.25;;;5.40;99.90;;;;;;5032138;28;20068;-57
2022/01/27 09:21:06;;;;;;;41.60;19.55;;;5.40;99.90;;;;;;5013572;28;20379;-58
2022/01/27 09:23:33;;;;;;;35.55;19.25;;;5.40;99.90;;;;;;5031090;28;20075;-55
2022/01/27 09:26:05;;;;;;;36.55;17.90;;;5.40;99.90;;;;;;5024627;28;20042;-55
2022/01/27 09:28:31;;;;;;;36.17;16.25;;;5.40;99.90;;;;;;5005618;28;20161;-55
2022/01/27 09:30:57;;;;;;;40.15;17.73;;;5.50;99.90;;;;;;5011243;28;20092;-54
2022/01/27 09:33:23;;;;;;;41.50;17.95;;;5.50;99.90;;;;;;5010914;28;20030;-55
2022/01/27 09:35:49;;;;;;;36.92;16.95;;;5.50;99.90;;;;;;5010851;28;20125;-57
2022/01/27 09:38:16;;;;;;;33.47;15.57;;;5.50;99.90;;;;;;5011430;28;20065;-56
2022/01/27 09:40:46;;;;;;;31.05;15.48;;;5.50;99.90;;;;;;4992865;28;20121;-55
2022/01/27 09:43:12;;;;;;;35.00;16.20;;;5.60;99.90;;;;;;5019507;28;20080;-54
2022/01/27 09:45:39;;;;;;;31.48;15.02;;;5.60;99.90;;;;;;5031554;28;20471;-53
2022/01/27 09:48:13;;;;;;;29.75;14.75;;;5.60;99.90;;;;;;5012742;28;20033;-55
2022/01/27 09:51:12;;;;;;;26.20;13.25;;;5.60;99.90;;;;;;5031039;28;20029;-57
2022/01/27 09:53:32;;;;;;;26.15;13.48;;;5.60;99.90;;;;;;5029960;28;20025;-58
2022/01/27 09:55:57;;;;;;;26.65;13.00;;;5.70;99.90;;;;;;5018672;28;20025;-58
2022/01/27 09:58:23;;;;;;;23.55;11.52;;;5.70;99.90;;;;;;5029432;28;20033;-56
2022/01/27 10:00:49;;;;;;;27.13;12.95;;;5.70;99.90;;;;;;5018531;28;20695;-57
2022/01/27 10:03:16;;;;;;;25.08;12.55;;;5.70;99.90;;;;;;5013047;28;20038;-55
2022/01/27 10:05:44;;;;;;;26.23;12.73;;;5.70;99.90;;;;;;5018174;28;20108;-54
2022/01/27 10:08:16;;;;;;;24.73;13.48;;;5.80;99.90;;;;;;5011243;28;20029;-56
2022/01/27 10:10:44;;;;;;;23.13;11.45;;;5.80;99.90;;;;;;5010956;28;20088;-58
2022/01/27 10:13:25;;;;;;;25.70;12.45;;;5.80;99.90;;;;;;5012204;28;20113;-57
2022/01/27 10:15:53;;;;;;;22.55;12.05;;;5.80;99.90;;;;;;4993080;28;20061;-57
2022/01/27 10:18:20;;;;;;;26.13;12.55;;;5.80;99.90;;;;;;5019797;28;20037;-56
2022/01/27 10:21:04;;;;;;;23.63;11.95;;;5.90;99.90;;;;;;5018340;28;20037;-55
2022/01/27 10:23:33;;;;;;;24.80;11.60;;;5.90;99.90;;;;;;4995051;28;20029;-58
2022/01/27 10:26:11;;;;;;;28.33;13.45;;;5.90;99.90;;;;;;5022785;28;20029;-54
2022/01/27 10:31:19;;;;;;;27.77;13.38;;;6.00;99.90;;;;;;5018538;28;20029;-55
2022/01/27 10:33:51;;;;;;;42.83;15.27;;;6.10;99.90;;;;;;5004754;28;20040;-55
2022/01/27 10:36:22;;;;;;;32.78;13.65;;;6.20;99.90;;;;;;5013937;28;20400;-54
2022/01/27 10:38:57;;;;;;;28.83;14.00;;;6.20;99.90;;;;;;5009330;28;20030;-55
2022/01/27 10:41:25;;;;;;;37.92;14.38;;;6.20;99.90;;;;;;5010321;28;20046;-59
2022/01/27 10:44:03;;;;;;;27.92;14.57;;;6.30;99.90;;;;;;5010151;28;20136;-56
2022/01/27 10:46:30;;;;;;;35.13;14.60;;;6.30;99.90;;;;;;5011195;28;20065;-51
2022/01/27 10:49:08;;;;;;;38.03;14.48;;;6.40;99.90;;;;;;5010364;28;20029;-53
2022/01/27 10:51:44;;;;;;;29.85;13.73;;;6.50;99.90;;;;;;5010045;28;20495;-55
2022/01/27 10:54:21;;;;;;;33.63;12.90;;;6.50;99.90;;;;;;5010814;28;20068;-52
2022/01/27 10:56:48;;;;;;;39.47;14.55;;;6.50;99.90;;;;;;5011642;28;20113;-56
2022/01/27 10:59:17;;;;;;;34.88;13.15;;;6.60;99.90;;;;;;5011333;28;20040;-58
2022/01/27 11:01:48;;;;;;;37.78;13.80;;;6.70;99.90;;;;;;5009354;28;20410;-61
2022/01/27 11:04:16;;;;;;;49.00;14.82;;;6.70;99.90;;;;;;5010466;28;20049;-59
2022/01/27 11:06:58;;;;;;;35.75;12.93;;;6.80;99.90;;;;;;4992322;28;20148;-57
2022/01/27 11:09:25;;;;;;;38.00;12.70;;;6.80;99.90;;;;;;5009798;28;20150;-54
2022/01/27 11:11:56;;;;;;;37.70;12.30;;;6.90;99.90;;;;;;4991561;28;20041;-52
2022/01/27 11:14:24;;;;;;;43.17;13.27;;;6.90;99.90;;;;;;5010313;28;20033;-55
2022/01/27 11:16:52;;;;;;;34.55;12.60;;;6.90;99.90;;;;;;4991624;28;20026;-53
2022/01/27 11:27:26;;;;;;;39.53;12.00;;;7.10;99.90;;;;;;5012543;28;20037;-52
2022/01/27 11:30:06;;;;;;;48.90;13.75;;;7.10;99.90;;;;;;5009242;28;20492;-55
2022/01/27 11:33:01;;;;;;;44.45;12.35;;;7.10;99.90;;;;;;5009069;28;20041;-52
2022/01/27 11:35:27;;;;;;;39.38;12.38;;;7.10;99.90;;;;;;4987399;28;20044;-57
2022/01/27 11:37:55;;;;;;;47.58;12.20;;;7.20;99.90;;;;;;4990918;28;20544;-53
2022/01/27 11:40:33;;;;;;;37.25;11.45;;;7.30;99.90;;;;;;5027462;28;20041;-59
2022/01/27 11:42:59;;;;;;;47.30;11.18;;;7.30;99.90;;;;;;5022658;28;20025;-54
2022/01/27 11:45:31;;;;;;;50.33;11.82;;;7.40;99.90;;;;;;5015342;28;20026;-52
2022/01/27 11:48:12;;;;;;;39.50;9.15;;;7.40;99.90;;;;;;5015029;28;20041;-57
2022/01/27 11:50:55;;;;;;;41.17;8.68;;;7.50;99.90;;;;;;5015962;28;20040;-52
2022/01/27 11:53:33;;;;;;;42.00;7.40;;;7.70;99.90;;;;;;5020118;28;20034;-55
2022/01/27 11:56:01;;;;;;;49.75;8.07;;;7.90;99.90;;;;;;4995812;28;20344;-55
2022/01/27 11:58:27;;;;;;;37.35;6.70;;;7.90;99.90;;;;;;5013740;28;20101;-53
2022/01/27 12:01:17;;;;;;;40.38;7.03;;;8.00;99.90;;;;;;5012517;28;20040;-52
2022/01/27 12:04:06;;;;;;;34.55;6.35;;;8.20;99.90;;;;;;5018000;28;20028;-54
2022/01/27 12:06:32;;;;;;;40.10;5.53;;;8.40;99.90;;;;;;5015485;28;20739;-57
2022/01/27 12:09:16;;;;;;;44.65;6.28;;;8.50;99.90;;;;;;5032413;28;20060;-56
2022/01/27 12:11:47;;;;;;;36.65;6.38;;;8.80;99.90;;;;;;5016264;28;20034;-56
2022/01/27 12:14:15;;;;;;;33.60;5.38;;;9.50;99.90;;;;;;5029663;28;20446;-56
2022/01/27 12:16:53;;;;;;;43.00;5.68;;;10.10;99.90;;;;;;5036104;23;20408;-54
2022/01/27 12:19:20;;;;;;;35.88;5.70;;;10.10;99.90;;;;;;4995237;28;20037;-54
2022/01/27 12:21:53;;;;;;;37.75;5.90;;;10.10;99.90;;;;;;4994826;28;20535;-56
2022/01/27 12:24:30;;;;;;;46.80;6.38;;;9.90;99.90;;;;;;4994348;28;20030;-54
2022/01/27 12:27:03;;;;;;;33.95;6.00;;;9.40;99.90;;;;;;4999494;28;20056;-55
2022/01/27 12:29:51;;;;;;;40.15;7.30;;;9.10;99.90;;;;;;5014267;28;20099;-53
2022/01/27 12:32:16;;;;;;;42.72;6.35;;;8.80;99.90;;;;;;4975656;28;20069;-53
2022/01/27 12:34:56;;;;;;;38.28;6.60;;;8.60;99.90;;;;;;4975804;28;20488;-54
2022/01/27 12:37:24;;;;;;;41.60;5.55;;;8.50;99.90;;;;;;4975407;28;20034;-53
2022/01/27 12:39:52;;;;;;;42.13;5.28;;;8.40;99.90;;;;;;4999203;28;20026;-54
2022/01/27 12:42:18;;;;;;;36.63;6.95;;;8.30;99.90;;;;;;5011864;28;20050;-51
2022/01/27 12:45:00;;;;;;;38.22;7.45;;;8.30;99.90;;;;;;5014596;28;20037;-51
2022/01/27 12:47:27;;;;;;;36.38;6.15;;;8.20;99.90;;;;;;5014337;28;20030;-51
2022/01/27 12:50:04;;;;;;;31.80;6.03;;;8.20;99.90;;;;;;5014942;28;20108;-53
2022/01/27 12:52:34;;;;;;;30.27;6.57;;;8.20;99.90;;;;;;5014858;28;20475;-51
2022/01/27 12:55:00;;;;;;;41.15;6.07;;;8.20;99.90;;;;;;5004501;28;20092;-51
2022/01/27 12:57:30;;;;;;;42.42;6.63;;;8.20;99.90;;;;;;4997018;28;20492;-52
2022/01/27 12:59:57;;;;;;;43.33;7.50;;;8.20;99.90;;;;;;5001901;28;20071;-50
2022/01/27 13:02:24;;;;;;;39.53;6.82;;;8.10;99.90;;;;;;5012449;28;20163;-51
2022/01/27 13:04:57;;;;;;;32.58;6.07;;;8.00;99.90;;;;;;5009340;28;20468;-53
2022/01/27 13:07:25;;;;;;;32.17;5.20;;;8.10;99.90;;;;;;5007179;28;20038;-53
2022/01/27 13:09:55;;;;;;;34.90;5.10;;;8.30;99.90;;;;;;4985348;28;20027;-53
2022/01/27 13:12:26;;;;;;;35.25;6.65;;;9.00;99.90;;;;;;4999932;28;20030;-52
2022/01/27 13:15:01;;;;;;;41.80;6.28;;;9.20;99.90;;;;;;5000641;28;20036;-51
2022/01/27 13:17:33;;;;;;;37.92;6.05;;;9.10;99.90;;;;;;5003749;28;20488;-54
2022/01/27 13:20:10;;;;;;;35.72;5.85;;;8.90;99.90;;;;;;5006011;28;20125;-52
2022/01/27 13:22:50;;;;;;;51.65;6.10;;;8.70;99.90;;;;;;5013760;28;20036;-52
2022/01/27 13:25:18;;;;;;;32.55;6.75;;;8.50;99.90;;;;;;5013866;28;20030;-50
2022/01/27 13:27:44;;;;;;;41.70;5.80;;;8.50;99.90;;;;;;5013846;28;20026;-50
2022/01/27 13:30:11;;;;;;;44.58;5.70;;;8.30;99.90;;;;;;5013689;28;20041;-50
2022/01/27 13:32:38;;;;;;;38.08;5.72;;;8.30;99.90;;;;;;5006516;28;20102;-50
2022/01/27 13:35:04;;;;;;;37.45;5.43;;;8.30;99.90;;;;;;4996187;28;20315;-51
2022/01/27 13:37:34;;;;;;;42.03;6.53;;;8.50;99.90;;;;;;4984580;28;20069;-54
2022/01/27 13:42:58;;;;;;;36.95;5.75;;;8.80;99.90;;;;;;5013728;28;20120;-52